Detall de PIREP

Printer-friendly versionPDF version

[2011/03/20 14:27:00]
Flight IATA:CT3224
Pilot Number:037
Company ICAO:CAT
Aircraft Type:B763/F
PAX:163
Departing Airport: LEPA
Destination Airport: LJLJ
Alternate Airport:LDZA
Online: VATSIM
Route:ISTER UN851 TORTU UM858 GEN UM859 CHI UL614 PUL L141 GIRDA UL141 ILB
Flight Level:F410
No Slew and time accel
No pause
Crash detect
Detect pilot in Cockpit between each 30 and 45 minutes
14:27 Zero fuel Weight: 266327 Lbs, Fuel Weight: 42171 Lbs
14:27 VATSIM:LEPA 201400Z 07013KT 020V110 9999 FEW050 17/04 Q1024 NOSIG
14:27 VATSIM:LJLJ 201400Z VRB07KT 9999 FEW070 12/M08 Q1025 NOSIG
14:29 Parking Brakes off
14:36 Take-off
14:36 Take off Weight: 307104 Lbs
14:36 Wind: 072º @ 013 Knots Heading: 059º
14:36 POS N39º 32´ 53´´ E002º 44´ 46´´
14:36 Gear Up: 175 Knots
14:36 Flaps:3 at 176 Knots
14:37 Flaps:2 at 197 Knots
14:37 Flaps:1 at 238 Knots
14:37 Flaps:0 at 235 Knots
14:51 Wind:000º@064 Knots Heading: 050º Ground Speed: 418 Knots Altitude 30603 ft
14:59 TOC
14:59 Fuel Weight: 32688 Lb
15:06 Wind:028º@030 Knots Heading: 058º Ground Speed: 446 Knots Altitude 41269 ft
15:21 Wind:034º@005 Knots Heading: 022º Ground Speed: 479 Knots Altitude 41217 ft
15:36 Wind:028º@038 Knots Heading: 005º Ground Speed: 449 Knots Altitude 41272 ft
15:51 Wind:051º@099 Knots Heading: 079º Ground Speed: 396 Knots Altitude 41246 ft
16:06 Wind:084º@018 Knots Heading: 096º Ground Speed: 464 Knots Altitude 41318 ft
16:07 TOD
16:07 Fuel Weight: 21092 Lb
16:21 Wind:078º@024 Knots Heading: 043º Ground Speed: 216 Knots Altitude 7975 ft
16:21 Flaps:1 at 208 Knots
16:30 Flaps:2 at 197 Knots
16:33 Gear Down: 182 Knots
16:33 Flaps:3 at 182 Knots
16:34 Flaps:4 at 168 Knots
16:35 Flaps:5 at 154 Knots
16:36 Wind:078º@010 Knots Heading: 091º Ground Speed: 145 KnotsAltitude 2109 ft
16:36 Flaps:6 at 145 Knots
16:38 TouchDown:Rate -418 ft/min Speed: 122 Knots
16:38 VATSIM:LJLJ 201600Z 10010KT 060V140 9999 FEW070 10/M08 Q1025 NOSIG
16:38 Land
16:38 Wind:095º@010 Knots
16:38 Heading: 309º
16:38 Flight Duration: 02:02
16:38 Landing Weight: 283271 Lbs
16:38 POS N46º 13´ 22´´ E014º 27´ 32´´
16:40 Parking brakes on
16:40 Block to Block Duration: 02:11
16:40 Final Fuel: 16538 Lbls
16:40 Spent Fuel: 25632 Lbls
16:40 Flight Length: 552 NM
16:40 TOD Land Length: 117 NM

Exportar CSV

Powered by Drupal - Modified by Danger4k